Terminal Aerodrome Forecast
Issued by NWS Melbourne, FL

Home | Current Version | Previous Version | Text Only | Print | Product List | Glossary On
Versions: 1 2 3 4 5 6 7 8 9 10 11 12 13 14 15 16 17 18 19
000
FTUS42 KMLB 300500
TAFDAB
TAF
KDAB 300529Z 3006/0106 22004KT P6SM SCT006 BKN020 OVC120
      TEMPO 3008/3012 BKN006
     FM301200 27006KT P6SM VCSH SCT010 BKN020
     FM301600 28007KT P6SM VCSH SCT010 OVC035
      TEMPO 3016/3020 3SM SHRA BKN025
     FM302000 01008KT P6SM SCT020 OVC040
      TEMPO 3020/3023 2SM SHRA BKN020
     FM010000 01005KT P6SM VCSH SCT020 BKN100=

USA.gov is the U.S. government's official web portal to all federal, state and local government web resources and services.